Time;durP1;ratioP1;P1;durP2;ratioP2;P2;SDS_P1;SDS_P2;PMS_P1;PMS_P2;Temp;Humidity;BMP_temperature;BMP_pressure;BME280_temperature;BME280_humidity;BME280_pressure;Samples;Min_cycle;Max_cycle;Signal;HPM_P1;HPM_P2
2022/03/09 00:02:25;;;;;;;;;;;;;;;2.22;62.48633;102235.9;;;;-82
2022/03/09 00:06:29;;;;;;;10;4.7;;;;;;;;;;;;;-84
2022/03/09 00:07:18;;;;;;;;;;;;;;;2.19;62.39453;102234.3;;;;-83
2022/03/09 00:12:15;;;;;;;;;;;;;;;2.18;62.51367;102231.1;;;;-84
2022/03/09 00:17:13;;;;;;;;;;;;;;;2.14;62.53027;102232.7;;;;-83
2022/03/09 00:22:13;;;;;;;;;;;;;;;2.11;62.46973;102234.8;;;;-82
2022/03/09 00:27:13;;;;;;;;;;;;;;;2.1;62.53516;102239.3;;;;-82
2022/03/09 00:32:16;;;;;;;;;;;;;;;2.05;62.66992;102238.2;;;;-83
2022/03/09 00:36:19;;;;;;;12.2;5;;;;;;;;;;;;;-84
2022/03/09 00:37:14;;;;;;;;;;;;;;;2.03;62.69922;102242.9;;;;-82
2022/03/09 00:42:18;;;;;;;;;;;;;;;2.02;62.6748;102249.2;;;;-82
2022/03/09 00:47:15;;;;;;;;;;;;;;;1.96;62.85254;102250.8;;;;-82
2022/03/09 00:52:13;;;;;;;;;;;;;;;1.93;62.94531;102253.8;;;;-85
2022/03/09 00:57:13;;;;;;;;;;;;;;;1.88;62.99316;102262.5;;;;-81
2022/03/09 01:02:18;;;;;;;;;;;;;;;1.84;63.16211;102259.9;;;;-84
2022/03/09 01:06:17;;;;;;;13.2;5.3;;;;;;;;;;;;;-84
2022/03/09 01:07:13;;;;;;;;;;;;;;;1.8;63.16602;102251.9;;;;-83
2022/03/09 01:12:22;;;;;;;;;;;;;;;1.76;63.26953;102251.3;;;;-83
2022/03/09 01:17:12;;;;;;;;;;;;;;;1.7;63.29297;102252.5;;;;-82
2022/03/09 01:22:16;;;;;;;;;;;;;;;1.66;63.47266;102247.8;;;;-84
2022/03/09 01:27:15;;;;;;;;;;;;;;;1.63;63.44629;102252.6;;;;-81
2022/03/09 01:32:22;;;;;;;;;;;;;;;1.61;63.31348;102253.1;;;;-82
2022/03/09 01:36:22;;;;;;;11.1;4.6;;;;;;;;;;;;;-82
2022/03/09 01:37:13;;;;;;;;;;;;;;;1.58;63.31934;102248.7;;;;-83
2022/03/09 01:42:17;;;;;;;;;;;;;;;1.56;63.41406;102245.4;;;;-82
2022/03/09 01:47:21;;;;;;;;;;;;;;;1.52;63.30957;102233.1;;;;-83
2022/03/09 01:52:16;;;;;;;;;;;;;;;1.49;63.30566;102229.4;;;;-83
2022/03/09 01:57:13;;;;;;;;;;;;;;;1.46;63.21387;102228.1;;;;-84
2022/03/09 02:02:19;;;;;;;;;;;;;;;1.44;63.18945;102233.6;;;;-83
2022/03/09 02:06:15;;;;;;;10.5;4.5;;;;;;;;;;;;;-84
2022/03/09 02:07:15;;;;;;;;;;;;;;;1.38;63.09473;102229;;;;-84
2022/03/09 02:12:14;;;;;;;;;;;;;;;1.36;63.26465;102234.9;;;;-83
2022/03/09 02:17:16;;;;;;;;;;;;;;;1.31;63.07324;102239.8;;;;-82
2022/03/09 02:22:16;;;;;;;;;;;;;;;1.26;63.12988;102232;;;;-82
2022/03/09 02:27:14;;;;;;;;;;;;;;;1.22;63.01465;102224.6;;;;-77
2022/03/09 02:32:18;;;;;;;;;;;;;;;1.15;63.09375;102221.9;;;;-77
2022/03/09 02:36:20;;;;;;;9.6;3.9;;;;;;;;;;;;;-79
2022/03/09 02:37:24;;;;;;;;;;;;;;;1.11;63.21777;102220.6;;;;-77
2022/03/09 02:42:19;;;;;;;;;;;;;;;1.07;63.27637;102220.5;;;;-78
2022/03/09 02:52:17;;;;;;;;;;;;;;;1.04;63.12012;102219.4;;;;-77
2022/03/09 03:02:18;;;;;;;;;;;;;;;0.99;62.95898;102210.8;;;;-78
2022/03/09 03:06:23;;;;;;;8.9;4.1;;;;;;;;;;;;;-78
2022/03/09 03:07:18;;;;;;;;;;;;;;;0.97;62.94531;102215;;;;-77
2022/03/09 03:12:23;;;;;;;;;;;;;;;;;;;;;
2022/03/09 03:17:12;;;;;;;;;;;;;;;0.92;62.80859;102222.5;;;;-79
2022/03/09 03:22:30;;;;;;;;;;;;;;;0.86;62.98535;102221.7;;;;-78
2022/03/09 03:27:19;;;;;;;;;;;;;;;0.83;62.88184;102219.1;;;;-77
2022/03/09 03:32:28;;;;;;;;;;;;;;;0.8;62.99609;102219.4;;;;-77
2022/03/09 03:36:24;;;;;;;9.8;3.7;;;;;;;;;;;;;-79
2022/03/09 03:37:13;;;;;;;;;;;;;;;0.77;63.12305;102218.2;;;;-77
2022/03/09 03:42:16;;;;;;;;;;;;;;;0.75;63.23926;102214.7;;;;-78
2022/03/09 03:46:56;;;;;;;;;;;;;;;0.74;63.22754;102210;;;;-78
2022/03/09 03:52:07;;;;;;;;;;;;;;;0.73;63.21484;102215.6;;;;-77
2022/03/09 03:56:59;;;;;;;;;;;;;;;0.71;63.33203;102217.3;;;;-77
2022/03/09 04:02:05;;;;;;;;;;;;;;;0.73;63.41113;102219.7;;;;-78
2022/03/09 04:06:21;;;;;;;9.4;3.8;;;;;;;;;;;;;-79
2022/03/09 04:07:05;;;;;;;;;;;;;;;0.7;63.37402;102219.8;;;;-77
2022/03/09 04:12:11;;;;;;;;;;;;;;;0.66;63.60742;102216.9;;;;-77
2022/03/09 04:17:10;;;;;;;;;;;;;;;0.66;63.51953;102219.3;;;;-79
2022/03/09 04:22:12;;;;;;;;;;;;;;;0.62;63.59961;102224.7;;;;-78
2022/03/09 04:26:56;;;;;;;;;;;;;;;0.59;63.78125;102232;;;;-79
2022/03/09 04:31:57;;;;;;;;;;;;;;;0.56;63.8418;102226.6;;;;-77
2022/03/09 04:36:13;;;;;;;8.4;3.6;;;;;;;;;;;;;-78
2022/03/09 04:37:06;;;;;;;;;;;;;;;0.52;63.66113;102218.4;;;;-78
2022/03/09 04:41:56;;;;;;;;;;;;;;;0.47;63.83887;102220.9;;;;-78
2022/03/09 04:46:53;;;;;;;;;;;;;;;0.44;63.9209;102213.6;;;;-79
2022/03/09 04:51:53;;;;;;;;;;;;;;;0.43;63.99609;102215;;;;-78
2022/03/09 04:57:00;;;;;;;;;;;;;;;0.4;63.86133;102217.9;;;;-78
2022/03/09 05:01:53;;;;;;;;;;;;;;;0.39;63.92383;102219.8;;;;-78
2022/03/09 05:06:16;;;;;;;10;4;;;;;;;;;;;;;-78
2022/03/09 05:06:53;;;;;;;;;;;;;;;0.38;63.87891;102214.9;;;;-78
2022/03/09 05:11:53;;;;;;;;;;;;;;;0.35;63.99414;102213.1;;;;-77
2022/03/09 05:17:07;;;;;;;;;;;;;;;0.33;63.90332;102217.5;;;;-78
2022/03/09 05:21:57;;;;;;;;;;;;;;;0.31;64.09766;102217.8;;;;-77
2022/03/09 05:27:09;;;;;;;;;;;;;;;0.29;64.09473;102219.4;;;;-78
2022/03/09 05:35:50;;;;;;;;;;;;;;;0.25;64.06641;102226;;;;-83
2022/03/09 05:36:12;;;;;;;12.6;3.9;;;;;;;;;;;;;-82
2022/03/09 05:50:21;;;;;;;;;;;;;;;0.2;64.30762;102241.5;;;;-77
2022/03/09 05:55:12;;;;;;;;;;;;;;;0.18;64.41504;102243.5;;;;-79
2022/03/09 06:00:26;;;;;;;;;;;;;;;0.16;64.42188;102252.7;;;;-79
2022/03/09 06:05:15;;;;;;;;;;;;;;;0.14;64.48438;102259.4;;;;-77
2022/03/09 06:06:16;;;;;;;10.7;3.9;;;;;;;;;;;;;-78
2022/03/09 06:10:06;;;;;;;;;;;;;;;0.1;64.43359;102264.9;;;;-77
2022/03/09 06:15:20;;;;;;;;;;;;;;;0.07;64.5166;102270.1;;;;-78
2022/03/09 06:20:03;;;;;;;;;;;;;;;0.03;64.40332;102282;;;;-76
2022/03/09 06:25:11;;;;;;;;;;;;;;;0.01;64.60547;102288.6;;;;-77
2022/03/09 06:30:05;;;;;;;;;;;;;;;0;64.6582;102289.5;;;;-77
2022/03/09 06:35:07;;;;;;;;;;;;;;;-0.01;64.68945;102291;;;;-77
2022/03/09 06:36:08;;;;;;;11.1;3.9;;;;;;;;;;;;;-78
2022/03/09 06:40:15;;;;;;;;;;;;;;;0.01;64.6709;102297.7;;;;-79
2022/03/09 06:45:14;;;;;;;;;;;;;;;0.04;64.65332;102294.4;;;;-78
2022/03/09 06:50:06;;;;;;;;;;;;;;;0.11;64.66309;102300.3;;;;-77
2022/03/09 06:55:07;;;;;;;;;;;;;;;0.16;64.52051;102298.5;;;;-77
2022/03/09 07:00:14;;;;;;;;;;;;;;;0.24;64.52051;102295.5;;;;-78
2022/03/09 07:05:03;;;;;;;;;;;;;;;0.34;64.42773;102294;;;;-82
2022/03/09 07:06:14;;;;;;;14.9;4.7;;;;;;;;;;;;;-80
2022/03/09 07:10:03;;;;;;;;;;;;;;;0.44;64.26855;102297.8;;;;-84
2022/03/09 07:15:03;;;;;;;;;;;;;;;0.58;64.43164;102298.1;;;;-83
2022/03/09 07:20:07;;;;;;;;;;;;;;;0.72;64.51758;102296;;;;-82
2022/03/09 07:25:09;;;;;;;;;;;;;;;0.89;64.62988;102294.5;;;;-83
2022/03/09 07:30:07;;;;;;;;;;;;;;;1.08;64.72461;102287.7;;;;-84
2022/03/09 07:35:04;;;;;;;;;;;;;;;1.28;64.13477;102289.6;;;;-82
2022/03/09 07:36:04;;;;;;;12.9;5;;;;;;;;;;;;;-83
2022/03/09 07:40:04;;;;;;;;;;;;;;;1.48;63.87012;102283.3;;;;-82
2022/03/09 07:45:12;;;;;;;;;;;;;;;1.7;63.99121;102287.5;;;;-84
2022/03/09 07:50:09;;;;;;;;;;;;;;;1.92;63.83691;102294.8;;;;-82
2022/03/09 07:55:03;;;;;;;;;;;;;;;2.14;63.70801;102303.6;;;;-83
2022/03/09 08:00:09;;;;;;;;;;;;;;;2.37;63.37988;102295.5;;;;-84
2022/03/09 08:05:04;;;;;;;;;;;;;;;2.56;62.07813;102297.9;;;;-82
2022/03/09 08:06:14;;;;;;;11.4;5.2;;;;;;;;;;;;;-81
2022/03/09 08:10:05;;;;;;;;;;;;;;;2.8;61.79688;102296.3;;;;-81
2022/03/09 08:15:04;;;;;;;;;;;;;;;3.09;62.11035;102296.2;;;;-82
2022/03/09 08:20:19;;;;;;;;;;;;;;;3.39;60.97363;102299;;;;-83
2022/03/09 08:25:21;;;;;;;;;;;;;;;3.87;60.72461;102302.2;;;;-82
2022/03/09 08:30:26;;;;;;;;;;;;;;;;;;;;;
2022/03/09 08:35:11;;;;;;;;;;;;;;;4.7;60.30273;102307.4;;;;-82
2022/03/09 08:36:13;;;;;;;14.4;6;;;;;;;;;;;;;-81
2022/03/09 08:40:03;;;;;;;;;;;;;;;5.17;58.79688;102310.9;;;;-82
2022/03/09 08:45:09;;;;;;;;;;;;;;;5.53;58.88965;102317.3;;;;-81
2022/03/09 08:50:05;;;;;;;;;;;;;;;6.03;58.4082;102313.5;;;;-80
2022/03/09 08:55:12;;;;;;;;;;;;;;;6.44;58.06445;102312.6;;;;-84
2022/03/09 09:00:11;;;;;;;;;;;;;;;6.79;56.2793;102314.6;;;;-82
2022/03/09 09:05:07;;;;;;;;;;;;;;;7.19;56.19727;102313.7;;;;-83
2022/03/09 09:06:02;;;;;;;14.8;6.5;;;;;;;;;;;;;-84
2022/03/09 09:20:08;;;;;;;;;;;;;;;8.07;52.4873;102293.3;;;;-83
2022/03/09 09:25:06;;;;;;;;;;;;;;;8.37;53.20215;102290;;;;-83
2022/03/09 09:30:08;;;;;;;;;;;;;;;8.64;52.21289;102275.7;;;;-83
2022/03/09 09:35:28;;;;;;;;;;;;;;;8.89;50.9082;102271.1;;;;-81
2022/03/09 09:39:34;;;;;;;;;;;;;;;9.12;50.86914;102284.5;;;;-86
2022/03/09 09:44:38;;;;;;;;;;;;;;;9.33;50.12598;102286.3;;;;-84
2022/03/09 09:49:48;;;;;;;;;;;;;;;9.47;49.84082;102291.2;;;;-85
2022/03/09 09:54:47;;;;;;;;;;;;;;;9.66;49.61816;102296;;;;-85
2022/03/09 09:59:50;;;;;;;;;;;;;;;9.78;48.85254;102302.8;;;;-85
2022/03/09 10:04:33;;;;;;;;;;;;;;;9.97;49.01758;102299.2;;;;-84
2022/03/09 10:06:17;;;;;;;17.8;8.2;;;;;;;;;;;;;-87
2022/03/09 10:09:47;;;;;;;;;;;;;;;10.19;48.57324;102302.2;;;;-86
2022/03/09 10:14:47;;;;;;;;;;;;;;;10.28;48.67285;102293.3;;;;-87
2022/03/09 10:24:54;;;;;;;;;;;;;;;10.66;48.91602;102290.7;;;;-85
2022/03/09 10:29:44;;;;;;;;;;;;;;;10.9;49.10059;102295.6;;;;-86
2022/03/09 10:34:37;;;;;;;;;;;;;;;11.05;48.18945;102285.6;;;;-85
2022/03/09 10:39:41;;;;;;;;;;;;;;;11.24;48.56738;102281.8;;;;-84
2022/03/09 10:49:54;;;;;;;;;;;;;;;11.61;48.17188;102271.4;;;;-85
2022/03/09 10:54:38;;;;;;;;;;;;;;;11.74;48.29785;102274.3;;;;-84
2022/03/09 11:04:48;;;;;;;;;;;;;;;12.11;49.19141;102263.7;;;;-85
2022/03/09 11:06:18;;;;;;;19.2;9.5;;;;;;;;;;;;;-85
2022/03/09 11:09:50;;;;;;;;;;;;;;;12.26;49.0293;102265.3;;;;-85
2022/03/09 11:14:52;;;;;;;;;;;;;;;12.46;51.46289;102260.5;;;;-85
2022/03/09 11:24:58;;;;;;;;;;;;;;;12.95;53.68457;102262.3;;;;-85
2022/03/09 11:29:49;;;;;;;;;;;;;;;13.15;52.71094;102263;;;;-88
2022/03/09 11:39:33;;;;;;;;;;;;;;;13.52;53.44043;102264.7;;;;-84
2022/03/09 11:57:24;;;;;;;;;;;;;;;14.1;53.96094;102264.3;;;;-82
2022/03/09 12:06:00;;;;;;;;;;;;;;;14.17;56.31934;102274;;;;-85
2022/03/09 12:06:52;;;;;;;24.7;10.9;;;;;;;;;;;;;-85
2022/03/09 12:11:03;;;;;;;;;;;;;;;14.43;54.33984;102264.3;;;;-85
2022/03/09 12:15:56;;;;;;;;;;;;;;;14.57;52.98242;102262.1;;;;-83
2022/03/09 12:50:38;;;;;;;;;;;;;;;14.93;52.24902;102226.2;;;;-81
2022/03/09 13:00:58;;;;;;;;;;;;;;;14.95;52.53223;102224.3;;;;-78
2022/03/09 13:09:08;;;;;;;;;;;;;;;15.13;54.36816;102220.9;;;;-80
2022/03/09 13:21:35;;;;;;;;;;;;;;;15.17;52.9082;102216.1;;;;-85
2022/03/09 13:29:16;;;;;;;;;;;;;;;15.23;54.0332;102209.9;;;;-81
2022/03/09 13:54:28;;;;;;;;;;;;;;;15.35;53.44824;102193.4;;;;-84
2022/03/09 13:59:40;;;;;;;;;;;;;;;;;;;;;
2022/03/09 14:04:06;;;;;;;;;;;;;;;15.43;53.06348;102192.3;;;;-85
2022/03/09 14:22:40;;;;;;;;;;;;;;;15.54;53.00977;102183.8;;;;-86
2022/03/09 14:31:04;;;;;;;;;;;;;;;15.45;52.72754;102180;;;;-83
2022/03/09 14:36:03;;;;;;;;;;;;;;;15.5;52.51953;102187.4;;;;-85
2022/03/09 14:36:28;;;;;;;29;14;;;;;;;;;;;;;-86
2022/03/09 14:40:53;;;;;;;;;;;;;;;15.52;53.77441;102184.2;;;;-86
2022/03/09 14:45:52;;;;;;;;;;;;;;;15.6;50.67969;102184.2;;;;-85
2022/03/09 14:50:53;;;;;;;;;;;;;;;15.56;53.09082;102177.2;;;;-86
2022/03/09 14:56:09;;;;;;;;;;;;;;;15.58;51.46875;102188.9;;;;-84
2022/03/09 15:00:58;;;;;;;;;;;;;;;15.53;50.88672;102186.2;;;;-85
2022/03/09 15:06:08;;;;;;;;;;;;;;;15.48;50.98145;102183.6;;;;-83
2022/03/09 15:06:51;;;;;;;29.1;14;;;;;;;;;;;;;-83
2022/03/09 15:11:03;;;;;;;;;;;;;;;15.45;52.31055;102183.8;;;;-85
2022/03/09 15:16:12;;;;;;;;;;;;;;;;;;;;;
2022/03/09 15:29:35;;;;;;;;;;;;;;;;;;;;;
2022/03/09 15:34:41;;;;;;;;;;;;;;;15.17;50.5625;102181.5;;;;-86
2022/03/09 15:36:34;;;;;;;30.5;14;;;;;;;;;;;;;-85
2022/03/09 15:39:24;;;;;;;;;;;;;;;15.06;51.7334;102182.7;;;;-85
2022/03/09 15:44:16;;;;;;;;;;;;;;;15;51.98633;102175;;;;-86
2022/03/09 15:54:27;;;;;;;;;;;;;;;14.77;51.36133;102166.4;;;;-85
2022/03/09 16:30:17;;;;;;;;;;;;;;;13.97;53.13477;102193;;;;-87
2022/03/09 16:35:43;;;;;;;;;;;;;;;13.81;53.48828;102205.5;;;;-87
2022/03/09 16:36:40;;;;;;;29.1;14.1;;;;;;;;;;;;;-86
2022/03/09 16:42:04;;;;;;;;;;;;;;;13.64;52.54492;102201.3;;;;-85
2022/03/09 16:56:47;;;;;;;;;;;;;;;;;;;;;
2022/03/09 17:06:25;;;;;;;;;;;;;;;12.65;54.32031;102225.1;;;;-85
2022/03/09 17:06:39;;;;;;;27;13.6;;;;;;;;;;;;;-85
2022/03/09 17:15:11;;;;;;;;;;;;;;;12.24;55.1875;102227.1;;;;-82
2022/03/09 17:36:36;;;;;;;;;;;;;;;11.25;57.03906;102236.6;;;;-81
2022/03/09 17:53:55;;;;;;;;;;;;;;;10.49;58.39746;102253.3;;;;-86
2022/03/09 17:59:03;;;;;;;;;;;;;;;10.31;58.83008;102263.2;;;;-85
2022/03/09 18:03:56;;;;;;;;;;;;;;;10.11;58.86914;102274.4;;;;-84
2022/03/09 18:06:53;;;;;;;28.2;12.7;;;;;;;;;;;;;-84
2022/03/09 18:12:41;;;;;;;;;;;;;;;9.76;58.77832;102283.8;;;;-87
2022/03/09 18:17:35;;;;;;;;;;;;;;;9.59;59.07813;102284.2;;;;-86
2022/03/09 18:22:57;;;;;;;;;;;;;;;9.42;59.04199;102283.4;;;;-86
2022/03/09 18:27:46;;;;;;;;;;;;;;;;;;;;;
2022/03/09 18:32:46;;;;;;;;;;;;;;;9.03;59.51172;102281.3;;;;-85
2022/03/09 18:36:41;;;;;;;27.1;12.3;;;;;;;;;;;;;-85
2022/03/09 18:42:40;;;;;;;;;;;;;;;8.76;59.53027;102288.5;;;;-85
2022/03/09 19:39:52;;;;;;;;;;;;;;;7.48;58.83594;102316.9;;;;-83
2022/03/09 19:59:03;;;;;;;;;;;;;;;7.18;58.81738;102328.8;;;;-85
2022/03/09 20:04:09;;;;;;;;;;;;;;;7.1;58.61719;102329.1;;;;-84
2022/03/09 20:20:20;;;;;;;;;;;;;;;6.86;58.99316;102333.1;;;;-86
2022/03/09 20:34:43;;;;;;;;;;;;;;;6.67;58.68066;102350.5;;;;-85
2022/03/09 20:36:50;;;;;;;24.2;10.1;;;;;;;;;;;;;-83
2022/03/09 20:44:41;;;;;;;;;;;;;;;6.55;58.54297;102343;;;;-85
2022/03/09 20:54:54;;;;;;;;;;;;;;;6.47;58.62109;102339.1;;;;-86
2022/03/09 20:59:44;;;;;;;;;;;;;;;6.42;58.53711;102349.9;;;;-83
2022/03/09 21:06:33;;;;;;;26.6;10.8;;;;;;;;;;;;;-84
2022/03/09 21:09:59;;;;;;;;;;;;;;;6.35;58.71484;102353.6;;;;-84
2022/03/09 21:14:49;;;;;;;;;;;;;;;6.32;58.97559;102351;;;;-85
2022/03/09 21:19:43;;;;;;;;;;;;;;;6.25;58.81055;102347.9;;;;-83
2022/03/09 21:29:42;;;;;;;;;;;;;;;6.12;59.05859;102362;;;;-84
2022/03/09 21:36:30;;;;;;;24;10.6;;;;;;;;;;;;;-84
2022/03/09 21:38:57;;;;;;;;;;;;;;;5.97;59.40137;102375;;;;-85
2022/03/09 21:43:56;;;;;;;;;;;;;;;5.88;59.6416;102380.1;;;;-84
2022/03/09 21:53:51;;;;;;;;;;;;;;;5.72;59.80664;102385.6;;;;-85
2022/03/09 22:02:05;;;;;;;;;;;;;;;5.6;60.02148;102377.8;;;;-85
2022/03/09 22:06:32;;;;;;;24.6;9.9;;;;;;;;;;;;;-83
2022/03/09 22:08:01;;;;;;;;;;;;;;;5.5;60.20605;102380.8;;;;-84
2022/03/09 22:12:58;;;;;;;;;;;;;;;5.43;60.30566;102390.1;;;;-85
2022/03/09 22:18:03;;;;;;;;;;;;;;;5.35;60.32715;102397.6;;;;-84
2022/03/09 22:23:16;;;;;;;;;;;;;;;5.25;60.63281;102399.9;;;;-85
2022/03/09 22:27:59;;;;;;;;;;;;;;;5.19;60.63379;102397.7;;;;-84
2022/03/09 22:33:06;;;;;;;;;;;;;;;5.1;60.82031;102401.4;;;;-82
2022/03/09 22:36:34;;;;;;;26.6;10.4;;;;;;;;;;;;;-83
2022/03/09 22:38:03;;;;;;;;;;;;;;;5.02;60.8418;102407.9;;;;-84
2022/03/09 22:43:01;;;;;;;;;;;;;;;4.94;61.01855;102415.2;;;;-84
2022/03/09 22:48:06;;;;;;;;;;;;;;;4.84;61.23438;102416.9;;;;-84
2022/03/09 22:57:59;;;;;;;;;;;;;;;4.68;61.5293;102420.4;;;;-84
2022/03/09 23:03:09;;;;;;;;;;;;;;;4.63;61.59863;102417.9;;;;-84
2022/03/09 23:06:34;;;;;;;25.2;10.1;;;;;;;;;;;;;-82
2022/03/09 23:11:55;;;;;;;;;;;;;;;4.52;61.62695;102418.7;;;;-83
2022/03/09 23:16:56;;;;;;;;;;;;;;;4.47;61.78516;102414.2;;;;-81
2022/03/09 23:23:34;;;;;;;;;;;;;;;4.4;61.78516;102413.2;;;;-84
2022/03/09 23:28:42;;;;;;;;;;;;;;;4.35;61.85547;102412.9;;;;-82
2022/03/09 23:33:34;;;;;;;;;;;;;;;4.3;61.90234;102421.1;;;;-84
2022/03/09 23:36:35;;;;;;;23.7;9.2;;;;;;;;;;;;;-84
2022/03/09 23:38:34;;;;;;;;;;;;;;;4.23;61.90332;102420.8;;;;-84
2022/03/09 23:43:26;;;;;;;;;;;;;;;4.15;62.0459;102420;;;;-84
2022/03/09 23:48:30;;;;;;;;;;;;;;;4.1;62.0166;102417.9;;;;-83
2022/03/09 23:53:29;;;;;;;;;;;;;;;4.02;62.08203;102424.2;;;;-84
2022/03/09 23:58:41;;;;;;;;;;;;;;;3.97;62.08496;102423.3;;;;-84
